createdAt,value
2022-10-02T00:00:19.713Z,15.9
2022-10-02T00:06:09.151Z,17.2
2022-10-02T00:11:59.359Z,19
2022-10-02T00:17:49.993Z,16.8
2022-10-02T00:23:39.441Z,18
2022-10-02T00:29:30.442Z,19.5
2022-10-02T00:35:21.334Z,20.8
2022-10-02T00:41:16.861Z,18.7
2022-10-02T00:47:07.742Z,14.5
2022-10-02T00:52:57.069Z,20.3
2022-10-02T00:58:47.168Z,16
2022-10-02T01:04:37.654Z,19.9
2022-10-02T01:10:28.965Z,20
2022-10-02T01:16:18.818Z,17.3
2022-10-02T01:22:08.396Z,18.3
2022-10-02T01:27:58.987Z,19.3
2022-10-02T01:33:49.765Z,21.1
2022-10-02T01:39:40.254Z,18.9
2022-10-02T01:45:30.142Z,20
2022-10-02T01:51:19.467Z,16.8
2022-10-02T01:57:16.057Z,20
2022-10-02T02:03:05.978Z,18.7
2022-10-02T02:09:05.385Z,18.6
2022-10-02T02:14:53.761Z,22.3
2022-10-02T02:20:43.358Z,20.8
2022-10-02T02:26:33.135Z,24.4
2022-10-02T02:32:23.632Z,23.2
2022-10-02T02:38:13.505Z,21.4
2022-10-02T02:44:02.769Z,18.8
2022-10-02T02:49:51.903Z,22.4
2022-10-02T02:55:48.797Z,19.4
2022-10-02T03:01:38.419Z,23.4
2022-10-02T03:07:28.037Z,18.3
2022-10-02T03:13:18.285Z,24.5
2022-10-02T03:19:08.310Z,21.5
2022-10-02T03:24:58.217Z,24.7
2022-10-02T03:30:47.583Z,23.1
2022-10-02T03:36:38.330Z,20.6
2022-10-02T03:42:28.725Z,20.6
2022-10-02T03:48:19.206Z,21.7
2022-10-02T03:54:07.606Z,22.5
2022-10-02T03:59:57.323Z,26.5
2022-10-02T04:05:46.458Z,22.8
2022-10-02T04:11:37.763Z,26.1
2022-10-02T04:17:27.621Z,23
2022-10-02T04:23:20.107Z,28
2022-10-02T04:29:11.137Z,25.3
2022-10-02T04:35:02.929Z,29.7
2022-10-02T09:24:36.948Z,4.8
2022-10-02T09:31:02.557Z,3.7
2022-10-02T09:44:22.168Z,2.5
2022-10-02T10:43:18.167Z,5
2022-10-02T10:49:06.388Z,2.3
2022-10-02T10:54:56.816Z,3.3
2022-10-02T11:00:47.879Z,15.7
2022-10-02T11:06:46.041Z,5.2
2022-10-02T11:12:36.518Z,5.1
2022-10-02T11:18:27.527Z,5.4
2022-10-02T11:24:19.931Z,3.7
2022-10-02T11:30:10.294Z,5.4
2022-10-02T11:36:00.353Z,5.7
2022-10-02T11:41:51.326Z,6.3
2022-10-02T11:47:42.260Z,4.3
2022-10-02T11:53:32.799Z,5.4
2022-10-02T11:59:23.042Z,7
2022-10-02T12:05:12.053Z,6.4
2022-10-02T12:11:01.873Z,5.4
2022-10-02T12:16:52.533Z,7.2
2022-10-02T12:22:42.277Z,8.4
2022-10-02T12:28:32.458Z,8.9
2022-10-02T12:34:22.414Z,5.8
2022-10-02T12:40:12.418Z,6
2022-10-02T12:46:02.882Z,8.2
2022-10-02T12:51:53.876Z,13.9
2022-10-02T12:57:45.496Z,8.7
2022-10-02T13:03:37.057Z,9.5
2022-10-02T13:09:38.815Z,7.4
2022-10-02T13:15:29.405Z,9.8
2022-10-02T13:21:21.386Z,9.1
2022-10-02T13:27:12.223Z,7.8
2022-10-02T13:33:02.972Z,9.3
2022-10-02T13:38:54.407Z,8.8
2022-10-02T13:44:44.634Z,8.8
2022-10-02T13:50:37.572Z,9.4
2022-10-02T13:56:28.174Z,8.8
2022-10-02T14:02:22.756Z,9.1
2022-10-02T14:08:12.667Z,9.2
2022-10-02T14:14:08.601Z,7.1
2022-10-02T14:19:59.084Z,9.5
2022-10-02T14:25:49.681Z,8
2022-10-02T14:31:40.359Z,7
2022-10-02T14:37:32.893Z,8.3
2022-10-02T14:43:23.943Z,8.2
2022-10-02T14:49:14.507Z,9.5
2022-10-02T14:55:06.111Z,8.9
2022-10-02T15:00:56.656Z,10.4
2022-10-02T15:06:47.568Z,8
2022-10-02T15:12:37.975Z,8
2022-10-02T15:18:28.759Z,8.7
2022-10-02T15:24:19.692Z,8.5
2022-10-02T15:30:10.549Z,11.6
2022-10-02T15:36:01.657Z,9.7
2022-10-02T15:41:53.121Z,10.7
2022-10-02T15:47:43.883Z,9.8
2022-10-02T15:53:36.311Z,12.1
2022-10-02T15:59:26.809Z,9
2022-10-02T16:05:18.040Z,11.1
2022-10-02T16:11:09.926Z,9.9
2022-10-02T16:17:01.673Z,9.1
2022-10-02T16:22:53.209Z,9.1
2022-10-02T16:28:44.707Z,11.6
2022-10-02T16:34:36.084Z,11.5
2022-10-02T16:40:31.972Z,9.6
2022-10-02T16:46:26.320Z,12.7
2022-10-02T16:52:16.647Z,9.3
2022-10-02T16:58:07.175Z,9.5
2022-10-02T17:03:57.929Z,10.9
2022-10-02T17:09:48.813Z,13.2
2022-10-02T17:15:38.743Z,13.2
2022-10-02T17:21:29.537Z,12
2022-10-02T17:27:20.926Z,12.5
2022-10-02T17:33:12.624Z,10.6
2022-10-02T17:39:03.172Z,12.9
2022-10-02T17:44:53.639Z,12.4
2022-10-02T17:50:44.508Z,12.7
2022-10-02T17:56:35.995Z,14.8
2022-10-02T18:02:27.124Z,15.1
2022-10-02T18:08:19.411Z,13.1
2022-10-02T18:14:09.536Z,13.9
2022-10-02T18:20:00.802Z,11.3
2022-10-02T18:25:51.134Z,12.2
2022-10-02T18:32:00.663Z,15
2022-10-02T18:37:51.197Z,12.5
2022-10-02T18:43:42.251Z,14.9
2022-10-02T18:49:36.548Z,13.5
2022-10-02T18:55:26.596Z,14.7
2022-10-02T19:01:18.311Z,15.8
2022-10-02T19:07:09.566Z,14.5
2022-10-02T19:12:59.925Z,15
2022-10-02T19:18:50.480Z,17.6
2022-10-02T19:24:39.773Z,18.5
2022-10-02T19:30:31.598Z,19.1
2022-10-02T19:36:21.754Z,16.2
2022-10-02T19:42:13.223Z,17
2022-10-02T19:48:05.464Z,18.2
2022-10-02T19:53:56.469Z,17.1
2022-10-02T19:59:48.640Z,24.7
2022-10-02T20:05:39.013Z,19.7
2022-10-02T20:11:31.070Z,18.4
2022-10-02T20:17:23.489Z,28
2022-10-02T20:23:15.638Z,19.2
2022-10-02T20:29:07.037Z,21.1
2022-10-02T20:34:59.219Z,26.2
2022-10-02T20:40:50.711Z,24.7
2022-10-02T20:46:47.935Z,19.5
2022-10-02T20:52:47.286Z,20.8
2022-10-02T20:58:41.204Z,21
2022-10-02T21:04:35.913Z,22.5
2022-10-02T21:10:27.704Z,19.1
2022-10-02T21:16:25.971Z,20.4
2022-10-02T21:22:27.648Z,22.9
2022-10-02T21:28:34.122Z,25
2022-10-02T21:34:33.544Z,19.2
2022-10-02T21:40:48.347Z,19.8
2022-10-02T21:46:46.084Z,25.5
2022-10-02T21:58:49.654Z,23.7
2022-10-02T22:04:41.711Z,23.1
2022-10-02T22:10:33.401Z,25.4
2022-10-02T22:16:25.966Z,40.6
2022-10-02T22:22:20.494Z,26.6
2022-10-02T22:28:14.416Z,26.9
2022-10-02T22:34:10.551Z,26
2022-10-02T22:40:01.563Z,28.3
2022-10-02T22:45:56.298Z,25.8
2022-10-02T22:51:48.486Z,22.3
2022-10-02T22:57:39.782Z,20.2
2022-10-02T23:03:30.866Z,25.3
2022-10-02T23:09:26.346Z,24.8
2022-10-02T23:15:17.334Z,19.3
2022-10-02T23:21:13.285Z,22.6
2022-10-02T23:27:06.634Z,23
2022-10-02T23:32:57.272Z,20.1
2022-10-02T23:38:46.105Z,18.4
2022-10-02T23:44:37.931Z,19
2022-10-02T23:50:29.020Z,21
2022-10-02T23:56:19.143Z,20.5
